»·PEaware :: N816MW KHII-KHND

N816MW :: KHII-KHND

FLIGHT INFORMATION

Flight Status: Arrived
Operator: Privately registered:
United States
More flights under this callsign
Pilot: John E. (23751)
Aircraft: CESSNA 172 SKYHAWK
(C172)
More flights by this aircraft type
Origin: KHII Lake Havasu City
United States
Destination: KHND Henderson
United States
More flights between these airports :: More routes between these airports
Route: +KHII KHND
File this flight plan on PilotEdge
Remarks: new to PilotEdge
Altitude:
(Current/Filed)
10,000ft
Speed:
(Current/Filed)
120kts
Departed: 02-Mar-19 03:03 PM
Arrived: 02-Mar-19 03:59 PM
Distance/Time
Traveled:
92nm/0:56
Distance/Time
To Go:
Arrived

Flight Plot

Page will automatically refresh every two minutes.

Flight plan parsing failed; only flown route is shown


Map Options




Map Legend


Flown Route
Filed Route
Departure Airport
Arrival Airport
Navaid (VOR, NDB)
Fix

Horizontal Profiles

Position Reports

Time Latitude Longitude Heading Altitude Ground
Speed
02-Mar-19 14:41 34.561236 -114.352954 102 767ft 0kts
02-Mar-19 14:42 34.561236 -114.352954 102 767ft 0kts
02-Mar-19 14:43 34.561236 -114.352954 102 767ft 0kts
02-Mar-19 14:44 34.561236 -114.352954 102 767ft 0kts
02-Mar-19 14:45 34.561236 -114.352954 102 767ft 0kts
02-Mar-19 14:46 34.561236 -114.352954 102 767ft 0kts
02-Mar-19 14:47 34.561236 -114.352954 102 767ft 0kts
02-Mar-19 14:48 34.561236 -114.352954 102 767ft 0kts
02-Mar-19 14:49 34.561236 -114.352954 102 767ft 0kts
02-Mar-19 14:50 34.561236 -114.352954 102 767ft 0kts
02-Mar-19 14:51 34.561236 -114.352954 102 767ft 0kts
02-Mar-19 14:52 34.561236 -114.352954 102 767ft 0kts
02-Mar-19 14:53 34.561236 -114.352954 102 767ft 0kts
02-Mar-19 14:54 34.561236 -114.352954 102 767ft 0kts
02-Mar-19 14:55 34.561236 -114.352954 102 767ft 0kts
02-Mar-19 14:56 34.561354 -114.352473 69 772ft 0kts
02-Mar-19 14:57 34.561354 -114.352473 69 772ft 0kts
02-Mar-19 14:58 34.561354 -114.352473 69 772ft 0kts
02-Mar-19 14:59 34.561354 -114.352473 69 772ft 0kts
02-Mar-19 15:00 34.561354 -114.352473 69 772ft 0kts
02-Mar-19 15:01 34.561354 -114.352473 69 772ft 0kts
02-Mar-19 15:02 34.563936 -114.353288 331 770ft 63kts
02-Mar-19 15:03 34.583734 -114.362419 347 1564ft 79kts
02-Mar-19 15:04 34.605000 -114.367913 339 2410ft 78kts
02-Mar-19 15:05 34.620800 -114.385862 328 3166ft 82kts
02-Mar-19 15:06 34.641636 -114.399733 331 3839ft 94kts
02-Mar-19 15:07 34.665022 -114.415006 333 4539ft 97kts
02-Mar-19 15:08 34.689735 -114.428112 336 5239ft 97kts
02-Mar-19 15:09 34.714412 -114.441099 336 5938ft 96kts
02-Mar-19 15:10 34.738539 -114.453853 336 6635ft 93kts
02-Mar-19 15:11 34.761706 -114.466566 331 7331ft 90kts
02-Mar-19 15:12 34.783216 -114.479801 333 8019ft 82kts
02-Mar-19 15:13 34.804374 -114.492589 334 8539ft 88kts
02-Mar-19 15:14 34.826883 -114.505867 334 9044ft 92kts
02-Mar-19 15:15 34.850115 -114.519584 334 9545ft 93kts
02-Mar-19 15:16 34.873445 -114.533405 334 9961ft 100kts
02-Mar-19 15:17 34.900285 -114.549310 334 10069ft 108kts
02-Mar-19 15:18 34.927146 -114.565273 334 10167ft 105kts
02-Mar-19 15:19 34.954819 -114.581775 334 10021ft 122kts
02-Mar-19 15:20 34.984018 -114.599230 334 9995ft 110kts
02-Mar-19 15:21 35.012052 -114.612360 343 9992ft 108kts
02-Mar-19 15:22 35.041240 -114.621621 356 9993ft 109kts
02-Mar-19 15:23 35.070831 -114.630693 335 9993ft 110kts
02-Mar-19 15:24 35.095991 -114.651433 327 9993ft 110kts
02-Mar-19 15:25 35.123104 -114.669463 333 9993ft 110kts
02-Mar-19 15:26 35.150909 -114.685022 343 9992ft 110kts
02-Mar-19 15:27 35.179837 -114.697376 338 9993ft 110kts
02-Mar-19 15:28 35.208045 -114.711826 336 9993ft 110kts
02-Mar-19 15:29 35.236148 -114.726911 335 9993ft 110kts
02-Mar-19 15:30 35.264112 -114.742123 335 9993ft 110kts
02-Mar-19 15:31 35.292113 -114.757421 335 9993ft 110kts
02-Mar-19 15:32 35.320100 -114.772738 335 9993ft 110kts
02-Mar-19 15:33 35.348039 -114.788043 335 10000ft 109kts
02-Mar-19 15:34 35.375007 -114.802836 335 10074ft 107kts
02-Mar-19 15:35 35.402445 -114.817890 335 10076ft 109kts
02-Mar-19 15:36 35.430311 -114.833192 335 10077ft 109kts
02-Mar-19 15:37 35.458135 -114.848482 335 10077ft 110kts
02-Mar-19 15:38 35.486255 -114.863951 335 10079ft 112kts
02-Mar-19 15:39 35.514512 -114.879498 335 10078ft 110kts
02-Mar-19 15:40 35.542415 -114.895265 334 10077ft 110kts
02-Mar-19 15:41 35.570351 -114.911008 335 10077ft 110kts
02-Mar-19 15:42 35.598418 -114.926497 335 10077ft 110kts
02-Mar-19 15:43 35.626341 -114.941895 335 10077ft 110kts
02-Mar-19 15:44 35.654353 -114.957344 335 9967ft 112kts
02-Mar-19 15:45 35.682973 -114.973123 335 9468ft 113kts
02-Mar-19 15:46 35.711717 -114.989006 335 8920ft 117kts
02-Mar-19 15:47 35.742864 -115.006218 335 8124ft 125kts
02-Mar-19 15:48 35.774242 -115.023583 335 7321ft 122kts
02-Mar-19 15:49 35.805049 -115.040070 338 6520ft 120kts
02-Mar-19 15:50 35.833727 -115.055657 335 6213ft 106kts
02-Mar-19 15:51 35.860604 -115.070583 335 6212ft 105kts
02-Mar-19 15:52 35.887325 -115.085426 335 6212ft 105kts
02-Mar-19 15:53 35.913953 -115.100228 335 6212ft 104kts
02-Mar-19 15:54 35.944823 -115.109242 334 4868ft 112kts
02-Mar-19 15:55 35.974642 -115.111512 3 3705ft 101kts
02-Mar-19 15:56 35.992560 -115.119967 292 3322ft 80kts
02-Mar-19 15:57 35.985926 -115.134967 183 2715ft 69kts
02-Mar-19 15:58 35.974752 -115.135380 197 2425ft 16kts
02-Mar-19 15:59 35.974390 -115.136410 270 2425ft 6kts
02-Mar-19 16:00 35.973651 -115.136851 163 2427ft 1kts
02-Mar-19 16:01 35.973295 -115.137188 248 2428ft 0kts
02-Mar-19 16:02 35.973155 -115.137129 141 2428ft 3kts
02-Mar-19 16:03 35.972872 -115.137378 169 2430ft 0kts
02-Mar-19 16:04 35.972872 -115.137378 169 2430ft 0kts
02-Mar-19 16:05 35.972872 -115.137378 169 2430ft 0kts
02-Mar-19 16:06 35.972872 -115.137378 169 2430ft 0kts
02-Mar-19 16:07 35.972872 -115.137378 169 2430ft 0kts
02-Mar-19 16:08 35.972872 -115.137378 169 2430ft 0kts
02-Mar-19 16:09 35.972872 -115.137378 169 2430ft 0kts
02-Mar-19 16:10 35.972872 -115.137378 169 2430ft 0kts
02-Mar-19 16:11 35.972872 -115.137378 169 2430ft 0kts
02-Mar-19 16:12 35.972872 -115.137378 169 2430ft 0kts

Navigation Log

Ident Type
Flight plan parsing failed, navigation log unavailable